Woodyard, Illinois
Current Conditions -  °F | °C
As of 8:55 AM on Tuesday 21 Oct 2014 (Local Time) from KSLO Reporting Station
Clear Clear  
Wind Chill: 53°   Ceiling: Unl
Heat Index: 53°   Visibility: 10mi
Dew Point: 49°   Wind: 5mph
Humidity: 87%   Direction: 30°NNE
Pressure: 30.11"   Gusts: NA
Location:  38.8463°N, 89.0894°W
Report Text: KSLO 211355Z AUTO 03004KT 10SM CLR 12/10 A3011 RMK AO2 T01180097
Loading
Personal Weather Stations






























Interactive Weather Map
Tropical Storm Tracking
New forecast layout! Learn more

10-Day Weather Forecast

Advertisements
Track Severe Weather on mobile